Homer Glen, Illinois
Current Conditions -  °F | °C
As of 7:15 PM on Saturday 25 Oct 2014 (Local Time) from KLOT Reporting Station
Clear Clear  
Wind Chill: 60°   Ceiling: Unl
Heat Index: 60°   Visibility: 10mi
Dew Point: 29°   Wind: 7mph
Humidity: 31%   Direction: 290°WNW
Pressure: 29.95"   Gusts: NA
Location:  41.6186°N, 87.9337°W
Report Text: KLOT 260015Z AUTO 29006KT 10SM CLR 16/M01 A2995 RMK AO2 T01571015
Loading
Personal Weather Stations






























Interactive Weather Map
Tropical Storm Tracking
New forecast layout! Learn more

10-Day Weather Forecast

Advertisements
Track Severe Weather on mobile